sensor_id;sensor_type;location;lat;lon;timestamp;temperature;humidity
35127;DHT22;21300;52.006;5.798;2023-02-28T00:00:30;2.00;99.90
35127;DHT22;21300;52.006;5.798;2023-02-28T00:02:57;2.00;99.90
35127;DHT22;21300;52.006;5.798;2023-02-28T00:05:24;2.00;99.90
35127;DHT22;21300;52.006;5.798;2023-02-28T00:07:50;2.00;99.90
35127;DHT22;21300;52.006;5.798;2023-02-28T00:10:18;2.00;99.90
35127;DHT22;21300;52.006;5.798;2023-02-28T00:12:49;1.90;99.90
35127;DHT22;21300;52.006;5.798;2023-02-28T00:15:16;1.90;99.90
35127;DHT22;21300;52.006;5.798;2023-02-28T00:17:41;1.90;99.90
35127;DHT22;21300;52.006;5.798;2023-02-28T00:20:08;1.90;99.90
35127;DHT22;21300;52.006;5.798;2023-02-28T00:22:36;1.90;99.90
35127;DHT22;21300;52.006;5.798;2023-02-28T00:25:02;1.90;99.90
35127;DHT22;21300;52.006;5.798;2023-02-28T00:27:28;1.90;99.90
35127;DHT22;21300;52.006;5.798;2023-02-28T00:29:54;1.90;99.90
35127;DHT22;21300;52.006;5.798;2023-02-28T00:32:20;1.90;99.90
35127;DHT22;21300;52.006;5.798;2023-02-28T00:34:45;1.90;99.90
35127;DHT22;21300;52.006;5.798;2023-02-28T00:37:11;1.90;99.90
35127;DHT22;21300;52.006;5.798;2023-02-28T00:39:38;1.90;99.90
35127;DHT22;21300;52.006;5.798;2023-02-28T00:42:05;1.90;99.90
35127;DHT22;21300;52.006;5.798;2023-02-28T00:44:30;1.80;99.90
35127;DHT22;21300;52.006;5.798;2023-02-28T00:46:56;1.90;99.90
35127;DHT22;21300;52.006;5.798;2023-02-28T00:49:23;1.90;99.90
35127;DHT22;21300;52.006;5.798;2023-02-28T00:51:49;1.80;99.90
35127;DHT22;21300;52.006;5.798;2023-02-28T00:54:15;1.80;99.90
35127;DHT22;21300;52.006;5.798;2023-02-28T00:56:41;1.90;99.90
35127;DHT22;21300;52.006;5.798;2023-02-28T00:59:07;1.80;99.90
35127;DHT22;21300;52.006;5.798;2023-02-28T01:01:32;1.80;99.90
35127;DHT22;21300;52.006;5.798;2023-02-28T01:03:58;1.80;99.90
35127;DHT22;21300;52.006;5.798;2023-02-28T01:06:24;1.80;99.90
35127;DHT22;21300;52.006;5.798;2023-02-28T01:08:49;1.80;99.90
35127;DHT22;21300;52.006;5.798;2023-02-28T01:11:16;1.80;99.90
35127;DHT22;21300;52.006;5.798;2023-02-28T01:13:44;1.80;99.90
35127;DHT22;21300;52.006;5.798;2023-02-28T01:16:09;1.80;99.90
35127;DHT22;21300;52.006;5.798;2023-02-28T01:18:36;1.80;99.90
35127;DHT22;21300;52.006;5.798;2023-02-28T01:21:14;1.80;99.90
35127;DHT22;21300;52.006;5.798;2023-02-28T01:23:40;1.80;99.90
35127;DHT22;21300;52.006;5.798;2023-02-28T01:26:07;1.80;99.90
35127;DHT22;21300;52.006;5.798;2023-02-28T01:28:33;1.80;99.90
35127;DHT22;21300;52.006;5.798;2023-02-28T01:30:58;1.80;99.90
35127;DHT22;21300;52.006;5.798;2023-02-28T01:33:24;1.80;99.90
35127;DHT22;21300;52.006;5.798;2023-02-28T01:35:58;1.80;99.90
35127;DHT22;21300;52.006;5.798;2023-02-28T01:38:23;1.80;99.90
35127;DHT22;21300;52.006;5.798;2023-02-28T01:40:49;1.80;99.90
35127;DHT22;21300;52.006;5.798;2023-02-28T01:43:35;1.80;99.90
35127;DHT22;21300;52.006;5.798;2023-02-28T01:46:15;1.80;99.90
35127;DHT22;21300;52.006;5.798;2023-02-28T01:48:48;1.80;99.90
35127;DHT22;21300;52.006;5.798;2023-02-28T01:51:17;1.80;99.90
35127;DHT22;21300;52.006;5.798;2023-02-28T01:53:49;1.80;99.90
35127;DHT22;21300;52.006;5.798;2023-02-28T01:56:20;1.80;99.90
35127;DHT22;21300;52.006;5.798;2023-02-28T01:58:49;1.70;99.90
35127;DHT22;21300;52.006;5.798;2023-02-28T02:01:16;1.80;99.90
35127;DHT22;21300;52.006;5.798;2023-02-28T02:03:59;1.80;99.90
35127;DHT22;21300;52.006;5.798;2023-02-28T02:06:29;1.70;99.90
35127;DHT22;21300;52.006;5.798;2023-02-28T02:08:55;1.70;99.90
35127;DHT22;21300;52.006;5.798;2023-02-28T02:11:22;1.80;99.90
35127;DHT22;21300;52.006;5.798;2023-02-28T02:28:41;1.80;99.90
35127;DHT22;21300;52.006;5.798;2023-02-28T02:36:34;1.80;99.90
35127;DHT22;21300;52.006;5.798;2023-02-28T02:42:01;1.80;99.90
35127;DHT22;21300;52.006;5.798;2023-02-28T02:44:48;1.80;99.90
35127;DHT22;21300;52.006;5.798;2023-02-28T02:47:18;1.70;99.90
35127;DHT22;21300;52.006;5.798;2023-02-28T02:49:51;1.70;99.90
35127;DHT22;21300;52.006;5.798;2023-02-28T02:52:22;1.70;99.90
35127;DHT22;21300;52.006;5.798;2023-02-28T02:54:50;1.80;99.90
35127;DHT22;21300;52.006;5.798;2023-02-28T02:57:34;1.70;99.90
35127;DHT22;21300;52.006;5.798;2023-02-28T03:00:04;1.70;99.90
35127;DHT22;21300;52.006;5.798;2023-02-28T03:02:32;1.70;99.90
35127;DHT22;21300;52.006;5.798;2023-02-28T03:05:02;1.80;99.90
35127;DHT22;21300;52.006;5.798;2023-02-28T03:07:29;1.70;99.90
35127;DHT22;21300;52.006;5.798;2023-02-28T03:09:56;1.80;99.90
35127;DHT22;21300;52.006;5.798;2023-02-28T03:12:40;1.70;99.90
35127;DHT22;21300;52.006;5.798;2023-02-28T03:15:23;1.70;99.90
35127;DHT22;21300;52.006;5.798;2023-02-28T03:18:01;1.70;99.90
35127;DHT22;21300;52.006;5.798;2023-02-28T03:30:52;1.70;99.90
35127;DHT22;21300;52.006;5.798;2023-02-28T03:34:00;1.70;99.90
35127;DHT22;21300;52.006;5.798;2023-02-28T03:36:38;1.70;99.90
35127;DHT22;21300;52.006;5.798;2023-02-28T03:39:14;1.80;99.90
35127;DHT22;21300;52.006;5.798;2023-02-28T03:42:01;1.80;99.90
35127;DHT22;21300;52.006;5.798;2023-02-28T03:44:38;1.80;99.90
35127;DHT22;21300;52.006;5.798;2023-02-28T03:47:07;1.80;99.90
35127;DHT22;21300;52.006;5.798;2023-02-28T03:49:46;1.70;99.90
35127;DHT22;21300;52.006;5.798;2023-02-28T03:52:14;1.70;99.90
35127;DHT22;21300;52.006;5.798;2023-02-28T03:54:45;1.80;99.90
35127;DHT22;21300;52.006;5.798;2023-02-28T03:57:22;1.80;99.90
35127;DHT22;21300;52.006;5.798;2023-02-28T03:59:59;1.70;99.90
35127;DHT22;21300;52.006;5.798;2023-02-28T04:02:29;1.70;99.90
35127;DHT22;21300;52.006;5.798;2023-02-28T04:04:55;1.70;99.90
35127;DHT22;21300;52.006;5.798;2023-02-28T04:07:21;1.70;99.90
35127;DHT22;21300;52.006;5.798;2023-02-28T04:09:46;1.70;99.90
35127;DHT22;21300;52.006;5.798;2023-02-28T04:12:12;1.70;99.90
35127;DHT22;21300;52.006;5.798;2023-02-28T04:14:37;1.70;99.90
35127;DHT22;21300;52.006;5.798;2023-02-28T04:17:03;1.70;99.90
35127;DHT22;21300;52.006;5.798;2023-02-28T04:19:29;1.70;99.90
35127;DHT22;21300;52.006;5.798;2023-02-28T04:21:55;1.60;99.90
35127;DHT22;21300;52.006;5.798;2023-02-28T04:24:27;1.60;99.90
35127;DHT22;21300;52.006;5.798;2023-02-28T04:26:55;1.70;99.90
35127;DHT22;21300;52.006;5.798;2023-02-28T04:29:23;1.70;99.90
35127;DHT22;21300;52.006;5.798;2023-02-28T04:31:49;1.70;99.90
35127;DHT22;21300;52.006;5.798;2023-02-28T04:34:15;1.70;99.90
35127;DHT22;21300;52.006;5.798;2023-02-28T04:36:41;1.70;99.90
35127;DHT22;21300;52.006;5.798;2023-02-28T04:39:06;1.70;99.90
35127;DHT22;21300;52.006;5.798;2023-02-28T04:41:32;1.70;99.90
35127;DHT22;21300;52.006;5.798;2023-02-28T04:43:58;1.70;99.90
35127;DHT22;21300;52.006;5.798;2023-02-28T04:46:23;1.80;99.90
35127;DHT22;21300;52.006;5.798;2023-02-28T04:48:49;1.80;99.90
35127;DHT22;21300;52.006;5.798;2023-02-28T04:51:16;1.80;99.90
35127;DHT22;21300;52.006;5.798;2023-02-28T04:53:42;1.80;99.90
35127;DHT22;21300;52.006;5.798;2023-02-28T04:56:11;1.70;99.90
35127;DHT22;21300;52.006;5.798;2023-02-28T04:58:37;1.80;99.90
35127;DHT22;21300;52.006;5.798;2023-02-28T05:01:18;1.80;99.90
35127;DHT22;21300;52.006;5.798;2023-02-28T05:03:44;1.70;99.90
35127;DHT22;21300;52.006;5.798;2023-02-28T05:06:11;1.70;99.90
35127;DHT22;21300;52.006;5.798;2023-02-28T05:08:37;1.70;99.90
35127;DHT22;21300;52.006;5.798;2023-02-28T05:11:03;1.80;99.90
35127;DHT22;21300;52.006;5.798;2023-02-28T05:13:29;1.70;99.90
35127;DHT22;21300;52.006;5.798;2023-02-28T05:15:55;1.80;99.90
35127;DHT22;21300;52.006;5.798;2023-02-28T05:18:21;1.80;99.90
35127;DHT22;21300;52.006;5.798;2023-02-28T05:20:47;1.70;99.90
35127;DHT22;21300;52.006;5.798;2023-02-28T05:23:13;1.80;99.90
35127;DHT22;21300;52.006;5.798;2023-02-28T05:25:40;1.80;99.90
35127;DHT22;21300;52.006;5.798;2023-02-28T05:28:06;1.80;99.90
35127;DHT22;21300;52.006;5.798;2023-02-28T05:30:32;1.80;99.90
35127;DHT22;21300;52.006;5.798;2023-02-28T05:32:58;1.80;99.90
35127;DHT22;21300;52.006;5.798;2023-02-28T05:35:24;1.80;99.90
35127;DHT22;21300;52.006;5.798;2023-02-28T05:37:49;1.80;99.90
35127;DHT22;21300;52.006;5.798;2023-02-28T05:40:15;1.80;99.90
35127;DHT22;21300;52.006;5.798;2023-02-28T05:42:41;1.80;99.90
35127;DHT22;21300;52.006;5.798;2023-02-28T05:45:07;1.80;99.90
35127;DHT22;21300;52.006;5.798;2023-02-28T05:47:34;1.70;99.90
35127;DHT22;21300;52.006;5.798;2023-02-28T05:50:00;1.80;99.90
35127;DHT22;21300;52.006;5.798;2023-02-28T05:52:27;1.80;99.90
35127;DHT22;21300;52.006;5.798;2023-02-28T05:54:53;1.70;99.90
35127;DHT22;21300;52.006;5.798;2023-02-28T05:57:18;1.70;99.90
35127;DHT22;21300;52.006;5.798;2023-02-28T05:59:44;1.70;99.90
35127;DHT22;21300;52.006;5.798;2023-02-28T06:02:14;1.80;99.90
35127;DHT22;21300;52.006;5.798;2023-02-28T06:04:40;1.70;99.90
35127;DHT22;21300;52.006;5.798;2023-02-28T06:07:07;1.80;99.90
35127;DHT22;21300;52.006;5.798;2023-02-28T06:09:33;1.70;99.90
35127;DHT22;21300;52.006;5.798;2023-02-28T06:12:00;1.70;99.90
35127;DHT22;21300;52.006;5.798;2023-02-28T06:14:26;1.70;99.90
35127;DHT22;21300;52.006;5.798;2023-02-28T06:16:51;1.70;99.90
35127;DHT22;21300;52.006;5.798;2023-02-28T06:19:17;1.70;99.90
35127;DHT22;21300;52.006;5.798;2023-02-28T06:21:43;1.70;99.90
35127;DHT22;21300;52.006;5.798;2023-02-28T06:24:09;1.70;99.90
35127;DHT22;21300;52.006;5.798;2023-02-28T06:26:35;1.70;99.90
35127;DHT22;21300;52.006;5.798;2023-02-28T06:29:00;1.70;99.90
35127;DHT22;21300;52.006;5.798;2023-02-28T06:31:26;1.80;99.90
35127;DHT22;21300;52.006;5.798;2023-02-28T06:33:55;1.70;99.90
35127;DHT22;21300;52.006;5.798;2023-02-28T06:36:21;1.70;99.90
35127;DHT22;21300;52.006;5.798;2023-02-28T06:38:46;1.70;99.90
35127;DHT22;21300;52.006;5.798;2023-02-28T06:41:30;1.80;99.90
35127;DHT22;21300;52.006;5.798;2023-02-28T06:43:56;1.80;99.90
35127;DHT22;21300;52.006;5.798;2023-02-28T06:46:23;1.70;99.90
35127;DHT22;21300;52.006;5.798;2023-02-28T06:48:48;1.70;99.90
35127;DHT22;21300;52.006;5.798;2023-02-28T06:51:17;1.80;99.90
35127;DHT22;21300;52.006;5.798;2023-02-28T06:53:45;1.80;99.90
35127;DHT22;21300;52.006;5.798;2023-02-28T06:56:13;1.80;99.90
35127;DHT22;21300;52.006;5.798;2023-02-28T06:58:39;1.70;99.90
35127;DHT22;21300;52.006;5.798;2023-02-28T07:01:06;1.70;99.90
35127;DHT22;21300;52.006;5.798;2023-02-28T07:03:34;1.70;99.90
35127;DHT22;21300;52.006;5.798;2023-02-28T07:06:00;1.70;99.90
35127;DHT22;21300;52.006;5.798;2023-02-28T07:08:26;1.70;99.90
35127;DHT22;21300;52.006;5.798;2023-02-28T07:10:55;1.80;99.90
35127;DHT22;21300;52.006;5.798;2023-02-28T07:13:22;1.70;99.90
35127;DHT22;21300;52.006;5.798;2023-02-28T07:15:59;1.70;99.90
35127;DHT22;21300;52.006;5.798;2023-02-28T07:18:25;1.70;99.90
35127;DHT22;21300;52.006;5.798;2023-02-28T07:20:50;1.80;99.90
35127;DHT22;21300;52.006;5.798;2023-02-28T07:23:17;1.70;99.90
35127;DHT22;21300;52.006;5.798;2023-02-28T07:25:42;1.70;99.90
35127;DHT22;21300;52.006;5.798;2023-02-28T07:28:08;1.80;99.90
35127;DHT22;21300;52.006;5.798;2023-02-28T07:30:34;1.80;99.90
35127;DHT22;21300;52.006;5.798;2023-02-28T07:32:59;1.70;99.90
35127;DHT22;21300;52.006;5.798;2023-02-28T07:35:25;1.70;99.90
35127;DHT22;21300;52.006;5.798;2023-02-28T07:37:51;1.80;99.90
35127;DHT22;21300;52.006;5.798;2023-02-28T07:40:17;1.70;99.90
35127;DHT22;21300;52.006;5.798;2023-02-28T07:42:43;1.80;99.90
35127;DHT22;21300;52.006;5.798;2023-02-28T07:45:10;1.80;99.90
35127;DHT22;21300;52.006;5.798;2023-02-28T07:47:38;1.80;99.90
35127;DHT22;21300;52.006;5.798;2023-02-28T07:50:05;1.80;99.90
35127;DHT22;21300;52.006;5.798;2023-02-28T07:52:30;1.80;99.90
35127;DHT22;21300;52.006;5.798;2023-02-28T07:54:57;1.80;99.90
35127;DHT22;21300;52.006;5.798;2023-02-28T07:57:23;1.80;99.90
35127;DHT22;21300;52.006;5.798;2023-02-28T07:59:48;1.90;99.90
35127;DHT22;21300;52.006;5.798;2023-02-28T08:02:15;1.90;99.90
35127;DHT22;21300;52.006;5.798;2023-02-28T08:04:41;1.90;99.90
35127;DHT22;21300;52.006;5.798;2023-02-28T08:07:06;1.90;99.90
35127;DHT22;21300;52.006;5.798;2023-02-28T08:09:33;1.90;99.90
35127;DHT22;21300;52.006;5.798;2023-02-28T08:11:59;1.90;99.90
35127;DHT22;21300;52.006;5.798;2023-02-28T08:14:25;1.90;99.90
35127;DHT22;21300;52.006;5.798;2023-02-28T08:16:50;1.90;99.90
35127;DHT22;21300;52.006;5.798;2023-02-28T08:19:16;2.00;99.90
35127;DHT22;21300;52.006;5.798;2023-02-28T08:21:41;2.00;99.90
35127;DHT22;21300;52.006;5.798;2023-02-28T08:24:07;2.00;99.90
35127;DHT22;21300;52.006;5.798;2023-02-28T08:26:33;2.00;99.90
35127;DHT22;21300;52.006;5.798;2023-02-28T08:28:58;2.00;99.90
35127;DHT22;21300;52.006;5.798;2023-02-28T08:31:24;2.00;99.90
35127;DHT22;21300;52.006;5.798;2023-02-28T08:33:50;2.00;99.90
35127;DHT22;21300;52.006;5.798;2023-02-28T08:36:17;2.10;99.90
35127;DHT22;21300;52.006;5.798;2023-02-28T08:38:44;2.10;99.90
35127;DHT22;21300;52.006;5.798;2023-02-28T08:41:11;2.10;99.90
35127;DHT22;21300;52.006;5.798;2023-02-28T08:43:37;2.10;99.90
35127;DHT22;21300;52.006;5.798;2023-02-28T08:46:05;2.10;99.90
35127;DHT22;21300;52.006;5.798;2023-02-28T08:48:33;2.10;99.90
35127;DHT22;21300;52.006;5.798;2023-02-28T08:51:08;2.10;99.90
35127;DHT22;21300;52.006;5.798;2023-02-28T08:53:38;2.10;99.90
35127;DHT22;21300;52.006;5.798;2023-02-28T08:56:10;2.10;99.90
35127;DHT22;21300;52.006;5.798;2023-02-28T08:58:36;2.20;99.90
35127;DHT22;21300;52.006;5.798;2023-02-28T09:01:11;2.20;99.90
35127;DHT22;21300;52.006;5.798;2023-02-28T09:03:38;2.20;99.90
35127;DHT22;21300;52.006;5.798;2023-02-28T09:06:04;2.20;99.90
35127;DHT22;21300;52.006;5.798;2023-02-28T09:08:30;2.30;99.90
35127;DHT22;21300;52.006;5.798;2023-02-28T09:10:57;2.30;99.90
35127;DHT22;21300;52.006;5.798;2023-02-28T09:13:24;2.30;99.90
35127;DHT22;21300;52.006;5.798;2023-02-28T09:15:50;2.30;99.90
35127;DHT22;21300;52.006;5.798;2023-02-28T09:18:16;2.40;99.90
35127;DHT22;21300;52.006;5.798;2023-02-28T09:20:42;2.40;99.90
35127;DHT22;21300;52.006;5.798;2023-02-28T09:23:10;2.40;99.90
35127;DHT22;21300;52.006;5.798;2023-02-28T09:25:35;2.40;99.90
35127;DHT22;21300;52.006;5.798;2023-02-28T09:28:02;2.40;99.90
35127;DHT22;21300;52.006;5.798;2023-02-28T09:30:28;2.50;99.90
35127;DHT22;21300;52.006;5.798;2023-02-28T09:32:54;2.50;99.90
35127;DHT22;21300;52.006;5.798;2023-02-28T09:35:21;2.50;99.90
35127;DHT22;21300;52.006;5.798;2023-02-28T09:37:48;2.60;99.90
35127;DHT22;21300;52.006;5.798;2023-02-28T09:40:15;2.60;99.90
35127;DHT22;21300;52.006;5.798;2023-02-28T09:42:45;2.60;99.90
35127;DHT22;21300;52.006;5.798;2023-02-28T09:45:36;2.60;99.90
35127;DHT22;21300;52.006;5.798;2023-02-28T09:48:16;2.60;99.90
35127;DHT22;21300;52.006;5.798;2023-02-28T09:50:48;2.70;99.90
35127;DHT22;21300;52.006;5.798;2023-02-28T09:53:35;2.70;99.90
35127;DHT22;21300;52.006;5.798;2023-02-28T09:56:10;2.80;99.90
35127;DHT22;21300;52.006;5.798;2023-02-28T09:58:51;2.80;99.90
35127;DHT22;21300;52.006;5.798;2023-02-28T10:01:35;2.80;99.90
35127;DHT22;21300;52.006;5.798;2023-02-28T10:04:54;2.90;99.90
35127;DHT22;21300;52.006;5.798;2023-02-28T10:06:54;2.90;99.30
35127;DHT22;21300;52.006;5.798;2023-02-28T10:09:30;3.00;99.40
35127;DHT22;21300;52.006;5.798;2023-02-28T10:12:02;3.00;99.50
35127;DHT22;21300;52.006;5.798;2023-02-28T10:14:30;3.00;99.90
35127;DHT22;21300;52.006;5.798;2023-02-28T10:17:03;3.10;99.90
35127;DHT22;21300;52.006;5.798;2023-02-28T10:19:35;3.10;99.00
35127;DHT22;21300;52.006;5.798;2023-02-28T10:24:50;3.20;99.90
35127;DHT22;21300;52.006;5.798;2023-02-28T10:27:21;3.20;99.70
35127;DHT22;21300;52.006;5.798;2023-02-28T10:29:52;3.20;99.40
35127;DHT22;21300;52.006;5.798;2023-02-28T10:32:24;3.30;99.00
35127;DHT22;21300;52.006;5.798;2023-02-28T10:37:48;3.40;98.40
35127;DHT22;21300;52.006;5.798;2023-02-28T10:45:20;3.60;98.60
35127;DHT22;21300;52.006;5.798;2023-02-28T10:48:00;3.60;98.80
35127;DHT22;21300;52.006;5.798;2023-02-28T10:56:19;3.70;99.50
35127;DHT22;21300;52.006;5.798;2023-02-28T10:59:30;3.70;99.20
35127;DHT22;21300;52.006;5.798;2023-02-28T11:01:56;3.70;99.80
35127;DHT22;21300;52.006;5.798;2023-02-28T11:07:18;3.80;99.80
35127;DHT22;21300;52.006;5.798;2023-02-28T11:10:04;3.80;99.90
35127;DHT22;21300;52.006;5.798;2023-02-28T11:12:38;3.90;99.90
35127;DHT22;21300;52.006;5.798;2023-02-28T11:15:07;3.90;99.00
35127;DHT22;21300;52.006;5.798;2023-02-28T11:17:43;4.00;99.40
35127;DHT22;21300;52.006;5.798;2023-02-28T11:20:22;4.00;99.90
35127;DHT22;21300;52.006;5.798;2023-02-28T11:22:50;4.00;99.30
35127;DHT22;21300;52.006;5.798;2023-02-28T11:25:24;4.00;99.20
35127;DHT22;21300;52.006;5.798;2023-02-28T11:27:57;4.10;99.90
35127;DHT22;21300;52.006;5.798;2023-02-28T11:30:38;4.10;99.50
35127;DHT22;21300;52.006;5.798;2023-02-28T11:33:23;4.20;99.50
35127;DHT22;21300;52.006;5.798;2023-02-28T11:35:52;4.20;99.90
35127;DHT22;21300;52.006;5.798;2023-02-28T11:38:19;4.30;99.90
35127;DHT22;21300;52.006;5.798;2023-02-28T11:46:05;4.30;99.90
35127;DHT22;21300;52.006;5.798;2023-02-28T11:48:44;4.40;99.90
35127;DHT22;21300;52.006;5.798;2023-02-28T11:51:21;4.50;99.90
35127;DHT22;21300;52.006;5.798;2023-02-28T11:56:41;4.50;98.00
35127;DHT22;21300;52.006;5.798;2023-02-28T12:05:33;4.60;99.00
35127;DHT22;21300;52.006;5.798;2023-02-28T12:08:15;4.60;99.80
35127;DHT22;21300;52.006;5.798;2023-02-28T12:10:57;4.70;99.90
35127;DHT22;21300;52.006;5.798;2023-02-28T12:13:39;4.80;99.90
35127;DHT22;21300;52.006;5.798;2023-02-28T12:21:43;4.80;99.70
35127;DHT22;21300;52.006;5.798;2023-02-28T12:24:29;4.80;99.30
35127;DHT22;21300;52.006;5.798;2023-02-28T12:27:02;4.90;99.30
35127;DHT22;21300;52.006;5.798;2023-02-28T12:29:30;4.90;98.50
35127;DHT22;21300;52.006;5.798;2023-02-28T12:32:21;4.90;98.20
35127;DHT22;21300;52.006;5.798;2023-02-28T12:34:56;4.90;97.60
35127;DHT22;21300;52.006;5.798;2023-02-28T12:37:45;4.80;97.60
35127;DHT22;21300;52.006;5.798;2023-02-28T12:40:20;4.90;98.30
35127;DHT22;21300;52.006;5.798;2023-02-28T12:42:52;4.90;98.90
35127;DHT22;21300;52.006;5.798;2023-02-28T12:45:19;5.00;98.80
35127;DHT22;21300;52.006;5.798;2023-02-28T12:47:50;5.00;98.50
35127;DHT22;21300;52.006;5.798;2023-02-28T12:50:17;5.00;99.60
35127;DHT22;21300;52.006;5.798;2023-02-28T12:55:47;5.10;98.80
35127;DHT22;21300;52.006;5.798;2023-02-28T12:58:27;5.10;99.40
35127;DHT22;21300;52.006;5.798;2023-02-28T13:01:03;5.20;99.00
35127;DHT22;21300;52.006;5.798;2023-02-28T13:06:43;5.20;98.50
35127;DHT22;21300;52.006;5.798;2023-02-28T13:09:15;5.30;96.40
35127;DHT22;21300;52.006;5.798;2023-02-28T13:11:50;5.40;94.80
35127;DHT22;21300;52.006;5.798;2023-02-28T13:14:29;5.40;95.90
35127;DHT22;21300;52.006;5.798;2023-02-28T13:19:43;5.30;97.50
35127;DHT22;21300;52.006;5.798;2023-02-28T13:22:37;5.30;98.70
35127;DHT22;21300;52.006;5.798;2023-02-28T13:27:55;5.30;97.40
35127;DHT22;21300;52.006;5.798;2023-02-28T13:36:11;5.40;98.00
35127;DHT22;21300;52.006;5.798;2023-02-28T13:38:56;5.40;97.10
35127;DHT22;21300;52.006;5.798;2023-02-28T13:44:04;5.40;96.90
35127;DHT22;21300;52.006;5.798;2023-02-28T13:46:31;5.40;98.20
35127;DHT22;21300;52.006;5.798;2023-02-28T13:49:26;5.40;98.10
35127;DHT22;21300;52.006;5.798;2023-02-28T13:57:42;5.40;98.40
35127;DHT22;21300;52.006;5.798;2023-02-28T14:05:37;5.40;98.00
35127;DHT22;21300;52.006;5.798;2023-02-28T14:08:24;5.40;98.30
35127;DHT22;21300;52.006;5.798;2023-02-28T14:11:02;5.40;97.90
35127;DHT22;21300;52.006;5.798;2023-02-28T14:13:43;5.40;97.10
35127;DHT22;21300;52.006;5.798;2023-02-28T14:16:14;5.40;97.80
35127;DHT22;21300;52.006;5.798;2023-02-28T14:18:47;5.40;98.00
35127;DHT22;21300;52.006;5.798;2023-02-28T14:21:29;5.40;97.60
35127;DHT22;21300;52.006;5.798;2023-02-28T14:35:34;5.30;97.20
35127;DHT22;21300;52.006;5.798;2023-02-28T14:38:05;5.30;98.00
35127;DHT22;21300;52.006;5.798;2023-02-28T14:40:35;5.30;97.10
35127;DHT22;21300;52.006;5.798;2023-02-28T14:43:05;5.30;97.40
35127;DHT22;21300;52.006;5.798;2023-02-28T14:45:33;5.30;98.30
35127;DHT22;21300;52.006;5.798;2023-02-28T14:48:00;5.30;98.40
35127;DHT22;21300;52.006;5.798;2023-02-28T14:50:30;5.30;98.10
35127;DHT22;21300;52.006;5.798;2023-02-28T14:52:57;5.30;98.10
35127;DHT22;21300;52.006;5.798;2023-02-28T14:55:27;5.30;97.40
35127;DHT22;21300;52.006;5.798;2023-02-28T14:57:56;5.30;97.80
35127;DHT22;21300;52.006;5.798;2023-02-28T15:02:50;5.30;97.90
35127;DHT22;21300;52.006;5.798;2023-02-28T15:05:26;5.30;98.40
35127;DHT22;21300;52.006;5.798;2023-02-28T15:08:22;5.30;98.40
35127;DHT22;21300;52.006;5.798;2023-02-28T15:10:57;5.30;98.00
35127;DHT22;21300;52.006;5.798;2023-02-28T15:13:31;5.30;97.60
35127;DHT22;21300;52.006;5.798;2023-02-28T15:16:01;5.30;98.30
35127;DHT22;21300;52.006;5.798;2023-02-28T15:21:33;5.30;98.50
35127;DHT22;21300;52.006;5.798;2023-02-28T15:24:06;5.30;97.90
35127;DHT22;21300;52.006;5.798;2023-02-28T15:26:38;5.30;98.30
35127;DHT22;21300;52.006;5.798;2023-02-28T15:29:06;5.30;97.40
35127;DHT22;21300;52.006;5.798;2023-02-28T15:31:41;5.20;97.30
35127;DHT22;21300;52.006;5.798;2023-02-28T15:34:20;5.20;97.00
35127;DHT22;21300;52.006;5.798;2023-02-28T15:36:46;5.20;96.80
35127;DHT22;21300;52.006;5.798;2023-02-28T15:39:25;5.20;97.20
35127;DHT22;21300;52.006;5.798;2023-02-28T15:41:55;5.20;96.40
35127;DHT22;21300;52.006;5.798;2023-02-28T15:44:34;5.20;97.20
35127;DHT22;21300;52.006;5.798;2023-02-28T15:47:16;5.20;97.20
35127;DHT22;21300;52.006;5.798;2023-02-28T15:49:54;5.20;96.70
35127;DHT22;21300;52.006;5.798;2023-02-28T15:52:29;5.20;97.40
35127;DHT22;21300;52.006;5.798;2023-02-28T15:54:58;5.20;97.60
35127;DHT22;21300;52.006;5.798;2023-02-28T15:57:26;5.20;97.30
35127;DHT22;21300;52.006;5.798;2023-02-28T15:59:58;5.20;97.30
35127;DHT22;21300;52.006;5.798;2023-02-28T16:02:36;5.30;97.10
35127;DHT22;21300;52.006;5.798;2023-02-28T16:07:41;5.30;96.80
35127;DHT22;21300;52.006;5.798;2023-02-28T16:10:09;5.20;97.00
35127;DHT22;21300;52.006;5.798;2023-02-28T16:12:36;5.20;96.80
35127;DHT22;21300;52.006;5.798;2023-02-28T16:15:07;5.20;96.90
35127;DHT22;21300;52.006;5.798;2023-02-28T16:17:35;5.20;96.90
35127;DHT22;21300;52.006;5.798;2023-02-28T16:20:39;5.20;97.00
35127;DHT22;21300;52.006;5.798;2023-02-28T16:22:58;5.20;96.70
35127;DHT22;21300;52.006;5.798;2023-02-28T16:25:39;5.10;96.80
35127;DHT22;21300;52.006;5.798;2023-02-28T16:28:21;5.20;97.00
35127;DHT22;21300;52.006;5.798;2023-02-28T16:30:51;5.20;97.00
35127;DHT22;21300;52.006;5.798;2023-02-28T16:33:17;5.20;97.40
35127;DHT22;21300;52.006;5.798;2023-02-28T16:35:42;5.20;97.30
35127;DHT22;21300;52.006;5.798;2023-02-28T16:38:08;5.20;97.50
35127;DHT22;21300;52.006;5.798;2023-02-28T16:40:35;5.10;97.70
35127;DHT22;21300;52.006;5.798;2023-02-28T16:43:07;5.10;96.80
35127;DHT22;21300;52.006;5.798;2023-02-28T16:45:35;5.10;96.80
35127;DHT22;21300;52.006;5.798;2023-02-28T16:48:01;5.10;97.40
35127;DHT22;21300;52.006;5.798;2023-02-28T16:50:29;5.10;96.90
35127;DHT22;21300;52.006;5.798;2023-02-28T16:52:55;5.10;97.50
35127;DHT22;21300;52.006;5.798;2023-02-28T16:55:22;5.10;97.00
35127;DHT22;21300;52.006;5.798;2023-02-28T16:57:55;5.10;96.90
35127;DHT22;21300;52.006;5.798;2023-02-28T17:00:21;5.10;97.10
35127;DHT22;21300;52.006;5.798;2023-02-28T17:02:47;5.10;97.50
35127;DHT22;21300;52.006;5.798;2023-02-28T17:05:13;5.00;97.30
35127;DHT22;21300;52.006;5.798;2023-02-28T17:07:41;5.00;97.50
35127;DHT22;21300;52.006;5.798;2023-02-28T17:10:19;5.10;97.20
35127;DHT22;21300;52.006;5.798;2023-02-28T17:12:45;5.00;97.20
35127;DHT22;21300;52.006;5.798;2023-02-28T17:15:12;5.00;97.50
35127;DHT22;21300;52.006;5.798;2023-02-28T17:17:38;5.00;97.70
35127;DHT22;21300;52.006;5.798;2023-02-28T17:20:04;5.00;97.50
35127;DHT22;21300;52.006;5.798;2023-02-28T17:22:31;5.00;97.60
35127;DHT22;21300;52.006;5.798;2023-02-28T17:24:56;4.90;98.30
35127;DHT22;21300;52.006;5.798;2023-02-28T17:27:24;4.90;98.10
35127;DHT22;21300;52.006;5.798;2023-02-28T17:29:52;4.90;98.80
35127;DHT22;21300;52.006;5.798;2023-02-28T17:32:18;4.90;99.00
35127;DHT22;21300;52.006;5.798;2023-02-28T17:34:44;5.00;99.20
35127;DHT22;21300;52.006;5.798;2023-02-28T17:37:11;4.90;99.40
35127;DHT22;21300;52.006;5.798;2023-02-28T17:39:36;4.90;99.40
35127;DHT22;21300;52.006;5.798;2023-02-28T17:42:02;4.90;99.60
35127;DHT22;21300;52.006;5.798;2023-02-28T17:44:28;4.90;99.70
35127;DHT22;21300;52.006;5.798;2023-02-28T17:46:54;4.90;99.70
35127;DHT22;21300;52.006;5.798;2023-02-28T17:49:20;4.80;99.80
35127;DHT22;21300;52.006;5.798;2023-02-28T17:51:46;4.80;99.80
35127;DHT22;21300;52.006;5.798;2023-02-28T17:54:12;4.80;99.90
35127;DHT22;21300;52.006;5.798;2023-02-28T17:56:39;4.80;99.90
35127;DHT22;21300;52.006;5.798;2023-02-28T17:59:05;4.80;99.90
35127;DHT22;21300;52.006;5.798;2023-02-28T18:01:31;4.80;99.90
35127;DHT22;21300;52.006;5.798;2023-02-28T18:03:57;4.70;99.90
35127;DHT22;21300;52.006;5.798;2023-02-28T18:06:24;4.70;99.90